Time;durP1;ratioP1;P1;durP2;ratioP2;P2;SDS_P1;SDS_P2;PMS_P1;PMS_P2;Temp;Humidity;BMP_temperature;BMP_pressure;BME280_temperature;BME280_humidity;BME280_pressure;Samples;Min_cycle;Max_cycle;Signal;HPM_P1;HPM_P2
2023/09/06 00:01:24;;;;;;;7.18;3.75;;;17.20;99.90;;;;;;5077777;28;20201;-79
2023/09/06 00:03:50;;;;;;;5.82;3.13;;;17.20;99.90;;;;;;5077071;28;20324;-80
2023/09/06 00:06:18;;;;;;;6.65;3.55;;;17.20;99.90;;;;;;5077920;28;20638;-80
2023/09/06 00:08:45;;;;;;;6.00;3.75;;;17.10;99.90;;;;;;5077212;28;20201;-80
2023/09/06 00:11:11;;;;;;;5.55;3.65;;;17.10;99.90;;;;;;5077648;28;20197;-80
2023/09/06 00:13:36;;;;;;;4.65;3.50;;;17.00;99.90;;;;;;5078693;28;20200;-79
2023/09/06 00:16:04;;;;;;;6.05;3.70;;;17.00;99.90;;;;;;5078529;28;20174;-80
2023/09/06 00:18:30;;;;;;;9.73;3.67;;;17.00;99.90;;;;;;5080031;28;20174;-80
2023/09/06 00:20:57;;;;;;;7.20;3.67;;;16.90;99.90;;;;;;5091480;28;20640;-80
2023/09/06 00:23:26;;;;;;;5.53;4.05;;;16.90;99.90;;;;;;5079429;28;20229;-80
2023/09/06 00:25:56;;;;;;;8.65;3.63;;;16.90;99.90;;;;;;5076175;28;20193;-80
2023/09/06 00:28:24;;;;;;;6.28;3.65;;;16.90;99.90;;;;;;5077218;28;20174;-80
2023/09/06 00:30:57;;;;;;;8.45;3.75;;;16.90;99.90;;;;;;5076008;28;20205;-80
2023/09/06 00:33:26;;;;;;;4.88;3.40;;;16.80;99.90;;;;;;5075557;28;20229;-80
2023/09/06 00:35:54;;;;;;;4.13;3.40;;;16.70;99.90;;;;;;5075964;28;20185;-80
2023/09/06 00:38:20;;;;;;;5.53;3.88;;;16.80;99.90;;;;;;5075725;28;20210;-80
2023/09/06 00:40:51;;;;;;;4.47;3.45;;;16.70;99.90;;;;;;5075785;28;20181;-80
2023/09/06 00:43:17;;;;;;;5.32;3.58;;;16.70;99.90;;;;;;5077132;28;20277;-80
2023/09/06 00:45:45;;;;;;;7.45;3.53;;;16.70;99.90;;;;;;5075946;28;20653;-80
2023/09/06 00:48:19;;;;;;;5.57;3.72;;;16.60;99.90;;;;;;5077500;28;20178;-79
2023/09/06 00:50:51;;;;;;;7.80;3.60;;;16.50;99.90;;;;;;5076039;28;20192;-80
2023/09/06 00:53:18;;;;;;;6.68;4.03;;;16.50;99.90;;;;;;5075531;28;20193;-80
2023/09/06 00:55:44;;;;;;;5.28;3.85;;;16.50;99.90;;;;;;5075797;28;20284;-80
2023/09/06 00:58:15;;;;;;;6.57;3.70;;;16.40;99.90;;;;;;5077666;28;20238;-80
2023/09/06 01:00:51;;;;;;;6.97;3.78;;;16.40;99.90;;;;;;5075913;28;20178;-80
2023/09/06 01:03:17;;;;;;;6.60;3.85;;;16.30;99.90;;;;;;5075567;28;20193;-79
2023/09/06 01:05:49;;;;;;;6.95;4.18;;;16.30;99.90;;;;;;5075980;28;20173;-80
2023/09/06 01:08:24;;;;;;;6.18;3.45;;;16.30;99.90;;;;;;5076601;28;20650;-80
2023/09/06 01:10:50;;;;;;;6.47;3.42;;;16.30;99.90;;;;;;5076014;28;20623;-79
2023/09/06 01:13:17;;;;;;;5.50;4.03;;;16.30;99.90;;;;;;5076966;28;20200;-79
2023/09/06 01:15:45;;;;;;;9.30;4.05;;;16.30;99.90;;;;;;5075710;28;20188;-79
2023/09/06 01:18:13;;;;;;;4.45;3.63;;;16.30;99.90;;;;;;5075680;28;20177;-79
2023/09/06 01:20:53;;;;;;;5.47;4.15;;;16.20;99.90;;;;;;5075946;28;20182;-81
2023/09/06 01:23:40;;;;;;;6.18;3.60;;;16.20;99.90;;;;;;5075957;28;20246;-80
2023/09/06 01:26:06;;;;;;;7.65;3.90;;;16.10;99.90;;;;;;5075292;28;20241;-80
2023/09/06 01:28:33;;;;;;;6.65;3.75;;;16.10;99.90;;;;;;5077267;28;20273;-80
2023/09/06 01:31:00;;;;;;;4.25;3.47;;;16.10;99.90;;;;;;5077193;28;20319;-80
2023/09/06 01:33:28;;;;;;;4.55;3.70;;;16.00;99.90;;;;;;5075388;28;20197;-80
2023/09/06 01:35:54;;;;;;;7.82;4.50;;;16.00;99.90;;;;;;5075619;28;20173;-80
2023/09/06 01:38:20;;;;;;;6.32;3.78;;;15.90;99.90;;;;;;5076602;28;20174;-80
2023/09/06 01:40:46;;;;;;;8.02;4.15;;;15.90;99.90;;;;;;5075456;28;20181;-80
2023/09/06 01:43:13;;;;;;;5.05;3.50;;;15.80;99.90;;;;;;5075534;28;20548;-80
2023/09/06 01:45:45;;;;;;;6.55;3.47;;;15.80;99.90;;;;;;5075666;28;20236;-80
2023/09/06 01:48:11;;;;;;;6.90;4.05;;;15.70;99.90;;;;;;5077066;28;20158;-79
2023/09/06 01:50:38;;;;;;;5.45;3.60;;;15.70;99.90;;;;;;5077188;28;20201;-80
2023/09/06 01:53:04;;;;;;;4.95;3.50;;;15.70;99.90;;;;;;5076954;28;20379;-80
2023/09/06 01:55:29;;;;;;;7.32;4.10;;;15.70;99.90;;;;;;5075314;28;20178;-79
2023/09/06 01:57:55;;;;;;;5.43;3.20;;;15.70;99.90;;;;;;5075303;28;20206;-80
2023/09/06 02:00:27;;;;;;;5.68;3.67;;;15.70;99.90;;;;;;5076640;28;20538;-81
2023/09/06 02:02:56;;;;;;;6.35;3.40;;;15.70;99.90;;;;;;5074978;28;20208;-79
2023/09/06 02:05:22;;;;;;;4.45;3.58;;;15.70;99.90;;;;;;5076541;28;20603;-79
2023/09/06 02:07:48;;;;;;;4.72;3.53;;;15.70;99.90;;;;;;5075104;28;20193;-80
2023/09/06 02:10:14;;;;;;;6.95;3.75;;;15.60;99.90;;;;;;5074991;28;20622;-80
2023/09/06 02:12:40;;;;;;;6.00;3.60;;;15.60;99.90;;;;;;5075117;28;20687;-80
2023/09/06 02:15:07;;;;;;;4.80;3.47;;;15.60;99.90;;;;;;5076649;28;20174;-80
2023/09/06 02:17:34;;;;;;;5.63;3.60;;;15.60;99.90;;;;;;5074834;28;20613;-79
2023/09/06 02:20:12;;;;;;;6.18;3.70;;;15.60;99.90;;;;;;5074660;28;20200;-80
2023/09/06 02:22:39;;;;;;;4.60;3.60;;;15.60;99.90;;;;;;5074708;28;20233;-79
2023/09/06 02:25:07;;;;;;;5.05;4.03;;;15.60;99.90;;;;;;5077413;28;20649;-80
2023/09/06 02:27:33;;;;;;;7.95;4.18;;;15.60;99.90;;;;;;5078410;28;20560;-80
2023/09/06 02:29:59;;;;;;;4.95;3.80;;;15.60;99.90;;;;;;5078700;28;20730;-80
2023/09/06 02:32:26;;;;;;;5.10;3.65;;;15.50;99.90;;;;;;5079926;28;20205;-79
2023/09/06 02:34:52;;;;;;;6.32;3.67;;;15.50;99.90;;;;;;5081546;28;20233;-80
2023/09/06 02:37:19;;;;;;;7.22;4.55;;;15.50;99.90;;;;;;5078774;28;20205;-79
2023/09/06 02:39:45;;;;;;;4.32;3.22;;;15.50;99.90;;;;;;5078755;28;20192;-80
2023/09/06 02:42:11;;;;;;;8.10;3.92;;;15.40;99.90;;;;;;5079095;28;20178;-80
2023/09/06 02:44:36;;;;;;;7.20;3.30;;;15.40;99.90;;;;;;5079250;28;20243;-80
2023/09/06 02:47:03;;;;;;;6.20;3.88;;;15.40;99.90;;;;;;5081271;28;20225;-79
2023/09/06 02:49:29;;;;;;;3.63;3.25;;;15.50;99.90;;;;;;5081282;28;20182;-80
2023/09/06 02:51:56;;;;;;;4.30;3.63;;;15.50;99.90;;;;;;5077774;28;20196;-80
2023/09/06 02:54:22;;;;;;;4.80;3.40;;;15.40;99.90;;;;;;5078017;28;20670;-80
2023/09/06 02:56:48;;;;;;;10.38;3.78;;;15.40;99.90;;;;;;5065040;28;20208;-80
2023/09/06 02:59:15;;;;;;;7.13;3.70;;;15.40;99.90;;;;;;5059327;28;20182;-80
2023/09/06 03:01:45;;;;;;;4.50;3.25;;;15.40;99.90;;;;;;5057681;28;20272;-80
2023/09/06 03:04:14;;;;;;;4.60;3.40;;;15.40;99.90;;;;;;5057554;28;20633;-80
2023/09/06 03:06:43;;;;;;;4.72;3.42;;;15.40;99.90;;;;;;5059317;28;20185;-80
2023/09/06 03:09:10;;;;;;;5.65;3.60;;;15.40;99.90;;;;;;5058668;28;20189;-80
2023/09/06 03:11:36;;;;;;;7.40;3.67;;;15.40;99.90;;;;;;5058181;28;20206;-80
2023/09/06 03:14:03;;;;;;;7.47;3.35;;;15.30;99.90;;;;;;5057791;28;20200;-79
2023/09/06 03:16:38;;;;;;;6.15;3.25;;;15.40;99.90;;;;;;5057821;28;20177;-80
2023/09/06 03:19:09;;;;;;;6.85;3.55;;;15.40;99.90;;;;;;5057465;28;20249;-80
2023/09/06 03:21:38;;;;;;;6.20;3.60;;;15.40;99.90;;;;;;5058947;28;20190;-80
2023/09/06 03:24:12;;;;;;;4.63;3.55;;;15.30;99.90;;;;;;5057586;28;20202;-80
2023/09/06 03:26:43;;;;;;;3.55;3.25;;;15.40;99.90;;;;;;5069181;28;20177;-80
2023/09/06 03:29:10;;;;;;;7.40;3.90;;;15.40;99.90;;;;;;5077716;28;20169;-80
2023/09/06 03:31:42;;;;;;;8.15;4.15;;;15.30;99.90;;;;;;5077356;28;20202;-80
2023/09/06 03:34:13;;;;;;;6.88;3.90;;;15.30;99.90;;;;;;5077210;28;20339;-80
2023/09/06 03:36:40;;;;;;;7.55;3.50;;;15.30;99.90;;;;;;5076284;28;20227;-80
2023/09/06 03:39:12;;;;;;;6.20;3.85;;;15.20;99.90;;;;;;5077263;28;20185;-80
2023/09/06 03:41:42;;;;;;;5.32;3.85;;;15.20;99.90;;;;;;5077603;28;20170;-80
2023/09/06 03:44:07;;;;;;;9.82;3.85;;;15.10;99.90;;;;;;5077393;28;20197;-80
2023/09/06 03:46:34;;;;;;;7.20;4.28;;;15.10;99.90;;;;;;5077531;28;20260;-80
2023/09/06 03:49:05;;;;;;;5.97;3.85;;;15.10;99.90;;;;;;5077482;28;20245;-79
2023/09/06 03:51:32;;;;;;;4.00;3.47;;;15.00;99.90;;;;;;5078794;28;20277;-80
2023/09/06 03:53:59;;;;;;;4.70;3.65;;;15.00;99.90;;;;;;5079004;28;20665;-81
2023/09/06 03:56:26;;;;;;;7.13;3.70;;;15.00;99.90;;;;;;5077829;28;20273;-79
2023/09/06 03:58:53;;;;;;;5.50;3.85;;;14.90;99.90;;;;;;5077907;28;20180;-80
2023/09/06 04:01:19;;;;;;;5.68;3.40;;;14.80;99.90;;;;;;5077894;28;20242;-80
2023/09/06 04:03:47;;;;;;;4.63;3.40;;;14.90;99.90;;;;;;5078819;28;20267;-80
2023/09/06 04:06:15;;;;;;;7.68;3.60;;;14.90;99.90;;;;;;5079663;28;20181;-80
2023/09/06 04:08:42;;;;;;;4.47;3.33;;;14.80;99.90;;;;;;5080128;28;20224;-79
2023/09/06 04:11:11;;;;;;;6.10;3.78;;;14.80;99.90;;;;;;5081926;28;20228;-79
2023/09/06 04:13:37;;;;;;;6.80;3.88;;;14.80;99.90;;;;;;5079526;28;20194;-79
2023/09/06 04:16:05;;;;;;;6.25;3.63;;;14.80;99.90;;;;;;5075977;28;20174;-80
2023/09/06 04:18:31;;;;;;;4.65;3.70;;;14.80;99.90;;;;;;5077125;28;20170;-79
2023/09/06 04:21:00;;;;;;;5.28;4.00;;;14.80;99.90;;;;;;5076330;28;20230;-80
2023/09/06 04:23:25;;;;;;;4.13;3.60;;;14.80;99.90;;;;;;5076383;28;20205;-80
2023/09/06 04:25:51;;;;;;;4.45;3.50;;;14.70;99.90;;;;;;5076215;28;20662;-80
2023/09/06 04:28:20;;;;;;;4.97;3.80;;;14.60;99.90;;;;;;5077680;28;20182;-80
2023/09/06 04:30:46;;;;;;;4.82;3.88;;;14.60;99.90;;;;;;5077290;28;20292;-80
2023/09/06 04:33:14;;;;;;;5.93;3.55;;;14.60;99.90;;;;;;5078021;28;20186;-79
2023/09/06 04:35:47;;;;;;;11.48;4.05;;;14.60;99.90;;;;;;5078132;28;20268;-80
2023/09/06 04:38:17;;;;;;;6.28;4.03;;;14.60;99.90;;;;;;5077264;28;20169;-80
2023/09/06 04:40:44;;;;;;;5.25;3.90;;;14.60;99.90;;;;;;5076887;28;20224;-80
2023/09/06 04:43:11;;;;;;;5.18;3.83;;;14.60;99.90;;;;;;5077174;28;20302;-80
2023/09/06 04:45:37;;;;;;;4.72;3.60;;;14.50;99.90;;;;;;5077182;28;20178;-80
2023/09/06 04:48:11;;;;;;;4.95;3.75;;;14.40;99.90;;;;;;5076594;28;20182;-79
2023/09/06 04:50:40;;;;;;;5.75;3.70;;;14.40;99.90;;;;;;5078747;28;20193;-80
2023/09/06 04:53:09;;;;;;;4.40;3.45;;;14.40;99.90;;;;;;5076616;28;20280;-80
2023/09/06 04:55:36;;;;;;;4.60;3.75;;;14.40;99.90;;;;;;5078278;28;20188;-80
2023/09/06 04:58:03;;;;;;;6.50;3.33;;;14.50;99.90;;;;;;5076879;28;20178;-80
2023/09/06 05:00:36;;;;;;;5.22;3.30;;;14.50;99.90;;;;;;5077340;28;20524;-80
2023/09/06 05:03:10;;;;;;;7.10;3.33;;;14.30;99.90;;;;;;5077232;28;20588;-79
2023/09/06 05:05:37;;;;;;;4.03;3.58;;;14.30;99.90;;;;;;5077067;28;20252;-80
2023/09/06 05:08:04;;;;;;;3.88;3.40;;;14.20;99.90;;;;;;5078229;28;20258;-80
2023/09/06 05:10:30;;;;;;;3.53;3.00;;;14.20;99.90;;;;;;5077475;28;20693;-80
2023/09/06 05:12:56;;;;;;;6.40;3.85;;;14.20;99.90;;;;;;5076562;28;20198;-80
2023/09/06 05:15:22;;;;;;;6.10;3.45;;;14.20;99.90;;;;;;5076485;28;20178;-80
2023/09/06 05:17:47;;;;;;;3.83;3.40;;;14.20;99.90;;;;;;5078022;28;20579;-80
2023/09/06 05:20:35;;;;;;;4.72;3.20;;;14.30;99.90;;;;;;5078307;28;20596;-80
2023/09/06 05:23:02;;;;;;;5.57;3.60;;;14.40;99.90;;;;;;5075050;28;20216;-80
2023/09/06 05:25:29;;;;;;;4.28;3.20;;;14.40;99.90;;;;;;5074649;28;20178;-80
2023/09/06 05:27:58;;;;;;;4.70;3.53;;;14.50;99.90;;;;;;5074450;28;20235;-80
2023/09/06 05:30:27;;;;;;;4.32;3.13;;;14.50;99.90;;;;;;5074923;28;20685;-80
2023/09/06 05:32:56;;;;;;;5.88;3.90;;;14.50;99.90;;;;;;5073664;28;20198;-79
2023/09/06 05:35:23;;;;;;;9.52;3.50;;;14.50;99.90;;;;;;5074248;28;20634;-80
2023/09/06 05:37:49;;;;;;;4.80;3.50;;;14.60;99.90;;;;;;5073770;28;20182;-80
2023/09/06 05:40:16;;;;;;;4.38;3.53;;;14.50;99.90;;;;;;5074056;28;20173;-79
2023/09/06 05:42:42;;;;;;;4.65;3.80;;;14.60;99.90;;;;;;5075822;28;20197;-80
2023/09/06 05:45:12;;;;;;;8.52;4.03;;;14.70;99.90;;;;;;5075045;28;20639;-80
2023/09/06 05:47:38;;;;;;;4.78;3.42;;;14.80;99.90;;;;;;5074073;28;20180;-79
2023/09/06 05:50:05;;;;;;;5.43;3.60;;;14.90;99.90;;;;;;5075321;28;20202;-80
2023/09/06 05:52:31;;;;;;;5.47;4.20;;;14.90;99.90;;;;;;5075054;28;20173;-80
2023/09/06 05:54:57;;;;;;;8.15;4.32;;;15.00;99.90;;;;;;5075460;28;20215;-79
2023/09/06 05:57:23;;;;;;;5.57;3.75;;;15.10;99.90;;;;;;5075288;28;20189;-80
2023/09/06 05:59:49;;;;;;;4.75;3.90;;;15.20;99.90;;;;;;5076467;28;20178;-80
2023/09/06 06:02:15;;;;;;;5.70;3.83;;;15.20;99.90;;;;;;5078871;28;20177;-80
2023/09/06 06:04:45;;;;;;;6.00;3.90;;;15.30;99.90;;;;;;5078321;28;20193;-79
2023/09/06 06:07:12;;;;;;;5.38;3.75;;;15.40;99.90;;;;;;5077921;28;20261;-82
2023/09/06 06:09:38;;;;;;;6.90;4.50;;;15.50;99.90;;;;;;5078462;28;20660;-81
2023/09/06 06:12:04;;;;;;;6.75;4.82;;;15.60;99.90;;;;;;5078579;28;20236;-81
2023/09/06 06:14:30;;;;;;;8.02;4.85;;;15.70;99.90;;;;;;5078676;28;20193;-81
2023/09/06 06:16:57;;;;;;;5.22;4.15;;;15.80;99.90;;;;;;5078440;28;20177;-81
2023/09/06 06:19:23;;;;;;;7.82;4.80;;;15.90;99.90;;;;;;5078252;28;20178;-81
2023/09/06 06:21:49;;;;;;;6.97;4.88;;;16.00;99.90;;;;;;5078065;28;20243;-81
2023/09/06 06:24:16;;;;;;;7.72;4.85;;;16.10;99.90;;;;;;5078062;28;20284;-81
2023/09/06 06:26:41;;;;;;;6.55;4.60;;;16.30;99.90;;;;;;5078158;28;20197;-81
2023/09/06 06:29:07;;;;;;;8.88;4.90;;;16.40;99.90;;;;;;5079672;28;20181;-81
2023/09/06 06:31:33;;;;;;;7.70;4.80;;;16.40;99.90;;;;;;5078768;28;20201;-82
2023/09/06 06:33:59;;;;;;;5.97;4.70;;;16.50;99.90;;;;;;5079418;28;20268;-81
2023/09/06 06:36:26;;;;;;;8.27;4.72;;;16.70;99.90;;;;;;5077785;28;20178;-82
2023/09/06 06:38:52;;;;;;;10.43;4.93;;;16.80;99.90;;;;;;5078885;28;20630;-82
2023/09/06 06:41:22;;;;;;;9.60;4.78;;;16.90;99.90;;;;;;5077943;28;20276;-82
2023/09/06 06:43:49;;;;;;;5.47;4.00;;;17.00;99.90;;;;;;5077699;28;20193;-81
2023/09/06 06:46:44;;;;;;;6.60;3.95;;;17.10;99.90;;;;;;5079037;28;20269;-82
2023/09/06 06:49:10;;;;;;;7.10;4.38;;;17.30;99.90;;;;;;5073901;28;20522;-81
2023/09/06 06:51:40;;;;;;;7.20;4.13;;;17.40;99.90;;;;;;5077445;28;20224;-81
2023/09/06 06:54:08;;;;;;;6.85;4.75;;;17.50;99.90;;;;;;5077292;28;20628;-81
2023/09/06 06:56:35;;;;;;;6.85;4.28;;;17.60;99.90;;;;;;5076730;28;20250;-82
2023/09/06 06:59:02;;;;;;;9.07;4.25;;;17.70;99.90;;;;;;5078164;28;20525;-82
2023/09/06 07:01:28;;;;;;;7.18;4.28;;;17.80;99.90;;;;;;5075848;28;20273;-81
2023/09/06 07:03:55;;;;;;;7.78;4.32;;;17.90;99.90;;;;;;5076932;28;20197;-81
2023/09/06 07:06:23;;;;;;;8.13;3.90;;;18.00;99.90;;;;;;5076373;28;20178;-79
2023/09/06 07:08:49;;;;;;;5.38;4.43;;;18.10;99.90;;;;;;5078089;28;20192;-79
2023/09/06 07:11:16;;;;;;;4.82;3.80;;;18.20;99.90;;;;;;5077584;28;20198;-79
2023/09/06 07:13:42;;;;;;;7.95;4.47;;;18.30;99.90;;;;;;5076585;28;20202;-78
2023/09/06 07:16:09;;;;;;;5.38;4.13;;;18.40;99.90;;;;;;5077966;28;20165;-78
2023/09/06 07:18:35;;;;;;;6.60;4.28;;;18.50;99.90;;;;;;5077603;28;20215;-78
2023/09/06 07:21:01;;;;;;;6.10;3.88;;;18.60;99.90;;;;;;5076600;28;20177;-79
2023/09/06 07:23:27;;;;;;;5.50;3.45;;;18.70;99.90;;;;;;5076983;28;20204;-78
2023/09/06 07:25:54;;;;;;;9.07;4.03;;;18.80;99.90;;;;;;5077377;28;20186;-78
2023/09/06 07:28:23;;;;;;;7.82;3.97;;;18.90;99.90;;;;;;5075682;28;20204;-77
2023/09/06 07:30:49;;;;;;;6.55;3.88;;;19.00;99.90;;;;;;5075428;28;20193;-77
2023/09/06 07:33:15;;;;;;;6.75;4.03;;;19.20;99.90;;;;;;5076699;28;20259;-77
2023/09/06 07:35:42;;;;;;;5.47;4.10;;;19.20;99.90;;;;;;5075436;28;20212;-77
2023/09/06 07:38:08;;;;;;;6.05;3.90;;;19.40;99.90;;;;;;5075363;28;20238;-78
2023/09/06 07:40:35;;;;;;;7.97;4.28;;;19.40;99.90;;;;;;5075231;28;20184;-78
2023/09/06 07:43:00;;;;;;;7.00;4.05;;;19.50;99.90;;;;;;5076715;28;20193;-78
2023/09/06 07:45:26;;;;;;;9.15;4.57;;;19.60;99.90;;;;;;5075372;28;20200;-78
2023/09/06 07:47:53;;;;;;;5.65;3.90;;;19.70;99.90;;;;;;5076062;28;20198;-77
2023/09/06 07:50:19;;;;;;;7.82;3.80;;;19.80;99.90;;;;;;5075745;28;20368;-78
2023/09/06 07:52:45;;;;;;;9.35;4.22;;;19.90;99.90;;;;;;5076223;28;20744;-76
2023/09/06 07:55:13;;;;;;;5.55;4.05;;;20.00;99.90;;;;;;5074492;28;20209;-76
2023/09/06 07:57:38;;;;;;;5.53;3.67;;;20.10;99.90;;;;;;5074174;28;20178;-76
2023/09/06 08:00:05;;;;;;;8.85;4.00;;;20.20;99.90;;;;;;5073928;28;20429;-76
2023/09/06 08:02:31;;;;;;;7.05;4.07;;;20.30;99.90;;;;;;5074303;28;20581;-76
2023/09/06 08:04:57;;;;;;;7.65;4.15;;;20.40;99.90;;;;;;5075112;28;20174;-75
2023/09/06 08:07:23;;;;;;;5.85;3.88;;;20.50;99.90;;;;;;5075663;28;20746;-76
2023/09/06 08:09:49;;;;;;;10.80;4.43;;;20.60;99.90;;;;;;5075119;28;20189;-75
2023/09/06 08:12:15;;;;;;;7.15;3.78;;;20.70;99.90;;;;;;5075753;28;20174;-76
2023/09/06 08:14:42;;;;;;;5.28;3.78;;;20.80;99.90;;;;;;5075526;28;20189;-76
2023/09/06 08:17:08;;;;;;;7.60;3.88;;;20.90;99.90;;;;;;5073944;28;20177;-76
2023/09/06 08:19:34;;;;;;;6.53;3.50;;;21.10;99.90;;;;;;5073546;28;20181;-76
2023/09/06 08:21:59;;;;;;;7.25;4.18;;;21.20;99.90;;;;;;5074299;28;20178;-76
2023/09/06 08:24:25;;;;;;;8.05;3.95;;;21.50;99.90;;;;;;5074177;28;20305;-75
2023/09/06 08:26:51;;;;;;;7.10;4.10;;;21.70;99.90;;;;;;5074930;28;20185;-76
2023/09/06 08:29:17;;;;;;;5.47;3.55;;;22.20;99.90;;;;;;5075577;28;20184;-76
2023/09/06 08:31:43;;;;;;;6.00;3.63;;;22.70;99.90;;;;;;5075447;28;20193;-76
2023/09/06 08:34:11;;;;;;;5.97;3.70;;;23.20;99.90;;;;;;5074789;28;20193;-76
2023/09/06 08:36:36;;;;;;;6.85;4.07;;;23.60;99.90;;;;;;5074117;28;20174;-76
2023/09/06 08:39:03;;;;;;;4.88;3.67;;;24.00;99.90;;;;;;5074872;28;20219;-76
2023/09/06 08:41:31;;;;;;;6.38;3.65;;;24.10;61.50;;;;;;5073932;28;20574;-76
2023/09/06 08:44:00;;;;;;;8.77;3.75;;;24.10;1.00;;;;;;5074794;28;20276;-75
2023/09/06 08:46:38;;;;;;;5.35;3.97;;;24.10;1.00;;;;;;5073739;28;20173;-76
2023/09/06 08:49:04;;;;;;;5.18;3.58;;;24.10;99.90;;;;;;5074588;28;20166;-76
2023/09/06 08:51:35;;;;;;;6.45;4.82;;;24.20;1.00;;;;;;5074450;28;20211;-76
2023/09/06 08:54:05;;;;;;;6.13;3.78;;;24.60;1.00;;;;;;5073429;28;20666;-76
2023/09/06 08:56:34;;;;;;;6.72;3.80;;;24.80;1.00;;;;;;5073483;28;20181;-75
2023/09/06 08:59:00;;;;;;;6.35;3.67;;;25.00;1.00;;;;;;5073112;28;20180;-76
2023/09/06 09:01:29;;;;;;;5.32;3.88;;;25.20;99.90;;;;;;5073212;28;20206;-76
2023/09/06 09:03:54;;;;;;;4.35;3.78;;;25.40;99.90;;;;;;5074467;28;20197;-76
2023/09/06 09:06:20;;;;;;;5.75;3.60;;;25.60;99.90;;;;;;5074782;28;20215;-76
2023/09/06 09:08:46;;;;;;;7.20;3.88;;;25.70;99.90;;;;;;5074286;28;20182;-76
2023/09/06 09:11:13;;;;;;;5.43;3.75;;;26.00;26.80;;;;;;5072990;28;20244;-76
2023/09/06 09:13:40;;;;;;;7.28;3.30;;;26.10;93.10;;;;;;5074703;28;20217;-76
2023/09/06 09:16:08;;;;;;;3.92;3.42;;;26.10;1.00;;;;;;5072863;28;20174;-76
2023/09/06 09:18:34;;;;;;;5.72;3.17;;;26.20;1.00;;;;;;5072650;28;20170;-76
2023/09/06 09:21:03;;;;;;;5.35;3.45;;;26.10;99.90;;;;;;5073098;28;20631;-76
2023/09/06 09:23:31;;;;;;;6.70;3.50;;;26.10;99.90;;;;;;5074400;28;20239;-76
2023/09/06 09:25:57;;;;;;;4.20;3.13;;;26.20;69.30;;;;;;5074179;28;20243;-76
2023/09/06 09:28:24;;;;;;;5.40;3.60;;;26.30;99.90;;;;;;5072929;28;20642;-76
2023/09/06 09:30:51;;;;;;;5.22;3.15;;;26.40;1.00;;;;;;5072614;28;20206;-76
2023/09/06 09:33:18;;;;;;;5.82;3.20;;;26.50;99.90;;;;;;5073953;28;20232;-76
2023/09/06 09:35:44;;;;;;;3.65;2.97;;;26.50;1.00;;;;;;5072890;28;20223;-76
2023/09/06 09:38:10;;;;;;;4.50;3.03;;;26.60;1.00;;;;;;5072916;28;20587;-76
2023/09/06 09:40:37;;;;;;;5.78;2.80;;;26.60;99.90;;;;;;5072484;28;20173;-76
2023/09/06 09:43:04;;;;;;;4.93;2.55;;;26.60;99.90;;;;;;5072333;28;20252;-76
2023/09/06 09:45:43;;;;;;;3.28;2.58;;;26.50;99.90;;;;;;5072542;28;20185;-76
2023/09/06 09:48:10;;;;;;;3.28;2.22;;;26.40;99.90;;;;;;5073829;28;20150;-77
2023/09/06 09:50:38;;;;;;;4.10;2.72;;;26.50;99.90;;;;;;5072367;28;20201;-76
2023/09/06 09:53:07;;;;;;;4.10;2.72;;;26.60;4.20;;;;;;5072376;28;20197;-76
2023/09/06 09:55:37;;;;;;;3.80;2.33;;;26.60;99.90;;;;;;5074278;28;20188;-76
2023/09/06 09:58:07;;;;;;;2.50;2.13;;;26.60;99.90;;;;;;5074077;28;20204;-76
2023/09/06 10:00:33;;;;;;;2.72;2.45;;;26.70;99.90;;;;;;5072680;28;20261;-77
2023/09/06 10:03:00;;;;;;;2.70;2.40;;;26.70;99.90;;;;;;5072768;28;20213;-77
2023/09/06 10:05:26;;;;;;;3.05;2.42;;;26.70;1.00;;;;;;5073742;28;20653;-77
2023/09/06 10:07:55;;;;;;;7.22;2.63;;;26.70;99.90;;;;;;5073450;28;20189;-76
2023/09/06 10:10:26;;;;;;;2.92;2.30;;;26.70;1.00;;;;;;5072257;28;20225;-77
2023/09/06 10:12:53;;;;;;;4.65;2.90;;;26.80;26.70;;;;;;5072276;28;20194;-78
2023/09/06 10:15:23;;;;;;;4.68;2.90;;;26.80;99.90;;;;;;5073637;28;20154;-78
2023/09/06 10:17:51;;;;;;;2.67;2.42;;;26.90;1.00;;;;;;5074114;28;20173;-76
2023/09/06 10:20:23;;;;;;;3.30;2.50;;;26.90;99.90;;;;;;5072986;28;20173;-76
2023/09/06 10:22:52;;;;;;;3.13;2.42;;;26.90;99.90;;;;;;5073234;28;20727;-76
2023/09/06 10:25:18;;;;;;;5.38;2.80;;;26.90;1.00;;;;;;5073095;28;20693;-77
2023/09/06 10:27:51;;;;;;;6.43;3.00;;;26.90;99.90;;;;;;5073319;28;20169;-76
2023/09/06 10:30:28;;;;;;;3.92;2.83;;;27.00;99.90;;;;;;5072052;28;20292;-76
2023/09/06 10:32:54;;;;;;;3.90;2.50;;;27.00;1.00;;;;;;5073327;28;20225;-76
2023/09/06 10:35:24;;;;;;;4.82;2.90;;;27.00;99.90;;;;;;5071904;28;20186;-76
2023/09/06 10:38:15;;;;;;;3.80;3.05;;;27.10;99.90;;;;;;5073493;28;20237;-76
2023/09/06 10:40:47;;;;;;;5.72;2.88;;;27.10;99.90;;;;;;5074035;28;20169;-76
2023/09/06 10:43:13;;;;;;;5.22;3.13;;;27.10;99.90;;;;;;5073442;28;20693;-76
2023/09/06 10:45:42;;;;;;;5.20;2.92;;;27.10;1.00;;;;;;5075088;28;20524;-76
2023/09/06 10:48:10;;;;;;;4.82;2.83;;;27.10;99.90;;;;;;5077488;28;20159;-76
2023/09/06 10:50:39;;;;;;;6.72;3.08;;;27.20;1.00;;;;;;5076790;28;20205;-76
2023/09/06 10:53:05;;;;;;;3.60;2.50;;;27.20;61.80;;;;;;5077189;28;20666;-76
2023/09/06 10:55:46;;;;;;;4.03;2.70;;;27.30;99.90;;;;;;5076771;28;20166;-75
2023/09/06 10:58:13;;;;;;;4.40;3.05;;;27.40;1.00;;;;;;5076867;28;20227;-76
2023/09/06 11:00:43;;;;;;;4.72;3.08;;;27.50;99.90;;;;;;5076082;28;20251;-76
2023/09/06 11:03:17;;;;;;;4.28;2.92;;;27.60;1.00;;;;;;5076486;28;20240;-76
2023/09/06 11:05:52;;;;;;;3.92;2.50;;;27.70;1.00;;;;;;5075600;28;20261;-76
2023/09/06 11:08:25;;;;;;;3.22;2.45;;;27.90;1.00;;;;;;5058769;28;20299;-76
2023/09/06 11:10:59;;;;;;;4.72;2.95;;;28.10;99.90;;;;;;5075479;28;20198;-76
2023/09/06 11:13:33;;;;;;;3.70;2.42;;;28.20;1.00;;;;;;5075463;28;20198;-77
2023/09/06 11:16:04;;;;;;;4.20;2.90;;;28.30;1.00;;;;;;5075545;28;20531;-76
2023/09/06 11:18:34;;;;;;;5.35;2.95;;;28.40;99.90;;;;;;5058701;28;20186;-76
2023/09/06 11:21:00;;;;;;;5.18;3.35;;;28.60;99.90;;;;;;5076718;28;20610;-76
2023/09/06 11:23:42;;;;;;;7.22;3.10;;;28.60;1.00;;;;;;5058738;28;20198;-76
2023/09/06 11:26:09;;;;;;;4.72;3.17;;;28.80;99.90;;;;;;5076035;28;20221;-76
2023/09/06 11:28:38;;;;;;;3.83;2.70;;;29.00;99.90;;;;;;5074810;28;20182;-76
2023/09/06 11:31:05;;;;;;;4.97;2.63;;;29.20;1.00;;;;;;5074638;28;20240;-76
2023/09/06 11:33:31;;;;;;;7.30;3.40;;;29.20;1.00;;;;;;5074369;28;20201;-76
2023/09/06 11:36:03;;;;;;;4.00;2.85;;;29.30;1.00;;;;;;5074887;28;20542;-76
2023/09/06 11:38:33;;;;;;;3.20;2.80;;;29.30;1.00;;;;;;5077171;28;20169;-76
2023/09/06 11:41:03;;;;;;;5.05;3.03;;;29.40;1.00;;;;;;5074831;28;20589;-76
2023/09/06 11:43:33;;;;;;;3.80;2.85;;;29.50;99.90;;;;;;5074429;28;20201;-76
2023/09/06 11:46:04;;;;;;;4.03;2.80;;;29.60;99.90;;;;;;5074557;28;20181;-76
2023/09/06 11:48:39;;;;;;;3.92;2.60;;;29.80;99.90;;;;;;5075120;28;20200;-76
2023/09/06 11:51:11;;;;;;;3.20;2.50;;;29.90;99.90;;;;;;5074217;28;20236;-76
2023/09/06 11:53:53;;;;;;;5.88;3.33;;;29.80;99.90;;;;;;5074001;28;20685;-76
2023/09/06 11:56:30;;;;;;;3.65;2.78;;;30.00;99.90;;;;;;5073259;28;20239;-77
2023/09/06 11:58:59;;;;;;;3.67;2.80;;;30.30;99.90;;;;;;5073980;28;20173;-76
2023/09/06 12:01:26;;;;;;;5.70;2.92;;;30.40;99.90;;;;;;5073900;28;20178;-77
2023/09/06 12:04:02;;;;;;;3.05;2.60;;;30.60;99.90;;;;;;5073797;28;20661;-76
2023/09/06 12:06:29;;;;;;;4.88;2.97;;;30.70;99.90;;;;;;5075060;28;20158;-76
2023/09/06 12:08:55;;;;;;;4.88;2.80;;;30.90;99.90;;;;;;5074800;28;20192;-76
2023/09/06 12:11:21;;;;;;;4.15;2.75;;;31.10;99.90;;;;;;5073566;28;20751;-76
2023/09/06 12:13:48;;;;;;;5.82;2.95;;;31.30;99.90;;;;;;5074756;28;20186;-76
2023/09/06 12:16:16;;;;;;;3.60;2.50;;;31.40;99.90;;;;;;5073518;28;20182;-76
2023/09/06 12:18:41;;;;;;;3.88;2.95;;;31.50;99.90;;;;;;5073087;28;20174;-76
2023/09/06 12:21:07;;;;;;;4.78;2.72;;;31.60;99.90;;;;;;5074839;28;20200;-76
2023/09/06 12:23:34;;;;;;;3.42;2.60;;;31.90;99.90;;;;;;5074564;28;20213;-76
2023/09/06 12:26:01;;;;;;;3.28;2.72;;;32.10;99.90;;;;;;5074534;28;20214;-77
2023/09/06 12:28:33;;;;;;;3.35;2.85;;;32.20;99.90;;;;;;5073145;28;20177;-76
2023/09/06 12:31:02;;;;;;;3.30;2.67;;;32.00;99.90;;;;;;5074732;28;20189;-76
2023/09/06 12:33:28;;;;;;;4.97;3.00;;;32.00;99.90;;;;;;5074397;28;20188;-77
2023/09/06 12:36:05;;;;;;;4.43;3.08;;;31.70;99.90;;;;;;5074315;28;20184;-77
2023/09/06 12:38:32;;;;;;;4.97;3.20;;;31.60;99.90;;;;;;5074517;28;20755;-77
2023/09/06 12:40:58;;;;;;;3.78;2.92;;;31.70;99.90;;;;;;5073025;28;20223;-76
2023/09/06 12:43:26;;;;;;;4.57;3.25;;;32.00;99.90;;;;;;5074203;28;20194;-77
2023/09/06 12:45:57;;;;;;;3.58;2.78;;;32.20;99.90;;;;;;5074122;28;20253;-77
2023/09/06 12:48:23;;;;;;;5.07;3.10;;;32.40;99.90;;;;;;5072921;28;20174;-77
2023/09/06 12:50:50;;;;;;;3.10;2.75;;;32.50;99.90;;;;;;5072575;28;20205;-77
2023/09/06 12:53:16;;;;;;;5.07;3.03;;;32.80;99.90;;;;;;5072591;28;20198;-77